Archival Weather

Heathrow

Heathrow, United Kingdom (EGLL)

Report from: Thursday, June 23, 2022 9:50 PM BST
Current time: Tuesday, August 16, 2022 8:34 AM BST

Current weather
Weather history
Weather forecast

Temperature20.0°C (68.0°F)
Dew point15.0°C (59.0°F)
Winds 9 kts (4.6 m/s, 10.4 mph) Vrb
Winds variableWinds variable from South (170°) to West-Southwest (250°)
Visibility6.2 mi. (10 km)
Clouds Sky clear
Altimeter29.77 in.Hg (1008 mB)
Relative humidity73 %
Density altitude998 ft. (304 m)
Remarks Fully automated report
Corrected report
No clouds detected
No significant changes expected in the next two hours
Flight conditions Visual Meteorological Conditions
Raw dataCOR EGLL 232050Z AUTO 20009KT 170V250 9999 NCD 20/15 Q1008 NOSIG
An error has occurred. This application may no longer respond until reloaded. Reload 🗙